Hauptseite
METAR-TAF:

METAR-TAF

Flughäfen :

Genua, Italien

Flughafen Genua

Breite: 44-25N, Länge: 008-51E, Höhe: 2 m

Beobachtung

Neuester Wetterbericht von vor 38 Minuten, um 09:20 UTC
Wind 7 kt aus Nordost, variierte zwischen Nord/Nordwest und Ost
Temperatur 26°C
Luftfeuchtigkeit 30%
Luftdruck 1026 hPa
Sichtweite 10 km oder mehr
keine Wolken unter 1500 m und keine Kumulonimbus oder Gewitterwolken

METAR: LIMJ 190920Z 04007KT 330V100 CAVOK 26/07 Q1026

Zeit: 11:58 (09:58 UTC)

Prognose

Neuester Wetterbericht von vor 4 Stunden und 58 Minuten, um 05:00 UTC
Gültige Prognose vom 19 um 06 UTC bis 20 um 06 UTC
Wind 6 kt aus Nordost
Sichtweite 10 km oder mehr
keine Wolken unter 1500 m und keine Kumulonimbus oder Gewitterwolken

TAF: LIMJ 190500Z 1906/2006 04006KT CAVOK

Wetterbeobachtungen und Prognosen von mehr als 4000 Flughäfen (METAR und TAF Bericht).

Die verfügbaren Stationen werden durch gelbe und rote Markierungen auf der Karte dargestellt.

Führen Sie die Maus auf sie, um den Namen der Station zu sehen.

Darauf klicken, um die Beobachtung von Wetterbeobachtungen und Prognosen zu sehen.

Um die Karte zu ändern : klicken Sie auf den grünen Tasten mit einem schwarzen Kreuz Zum Vergrößern, auf den grünen Button mit einem Gedankenstrich zu verkleinern, oder auf die grünen Pfeile für benachbarte Karten.


METAR-TAF: